sensor_id;sensor_type;location;lat;lon;timestamp;pressure;altitude;pressure_sealevel;temperature;humidity
60715;BME280;46564;53.096;8.246;2022-10-31T00:03:22;101798.34;;;11.75;98.25
60715;BME280;46564;53.096;8.246;2022-10-31T00:08:23;101795.53;;;11.67;98.17
60715;BME280;46564;53.096;8.246;2022-10-31T00:13:25;101809.34;;;11.62;98.28
60715;BME280;46564;53.096;8.246;2022-10-31T00:18:26;101805.53;;;11.50;98.45
60715;BME280;46564;53.096;8.246;2022-10-31T00:23:28;101811.16;;;11.34;98.29
60715;BME280;46564;53.096;8.246;2022-10-31T00:28:30;101815.25;;;11.26;98.33
60715;BME280;46564;53.096;8.246;2022-10-31T00:33:38;101822.16;;;11.22;98.18
60715;BME280;46564;53.096;8.246;2022-10-31T00:38:41;101829.69;;;11.11;98.16
60715;BME280;46564;53.096;8.246;2022-10-31T00:43:43;101823.53;;;11.09;98.18
60715;BME280;46564;53.096;8.246;2022-10-31T00:48:45;101841.91;;;11.11;98.41
60715;BME280;46564;53.096;8.246;2022-10-31T00:53:46;101849.78;;;11.11;98.09
60715;BME280;46564;53.096;8.246;2022-10-31T00:58:48;101847.50;;;11.22;98.43
60715;BME280;46564;53.096;8.246;2022-10-31T01:03:49;101844.22;;;11.29;98.56
60715;BME280;46564;53.096;8.246;2022-10-31T01:08:51;101853.22;;;11.37;98.24
60715;BME280;46564;53.096;8.246;2022-10-31T01:13:53;101859.19;;;11.33;98.74
60715;BME280;46564;53.096;8.246;2022-10-31T01:18:55;101856.53;;;11.31;98.83
60715;BME280;46564;53.096;8.246;2022-10-31T01:23:56;101865.22;;;11.29;98.86
60715;BME280;46564;53.096;8.246;2022-10-31T01:29:00;101855.16;;;11.16;98.85
60715;BME280;46564;53.096;8.246;2022-10-31T01:34:02;101859.56;;;11.17;99.06
60715;BME280;46564;53.096;8.246;2022-10-31T01:39:10;101850.53;;;11.07;99.20
60715;BME280;46564;53.096;8.246;2022-10-31T01:49:43;101866.25;;;10.79;99.21
60715;BME280;46564;53.096;8.246;2022-10-31T01:54:48;101857.94;;;10.67;99.54
60715;BME280;46564;53.096;8.246;2022-10-31T01:59:55;101868.25;;;10.63;99.13
60715;BME280;46564;53.096;8.246;2022-10-31T02:05:00;101859.63;;;10.65;99.12
60715;BME280;46564;53.096;8.246;2022-10-31T02:10:03;101859.38;;;10.57;99.28
60715;BME280;46564;53.096;8.246;2022-10-31T02:15:05;101871.28;;;10.49;99.20
60715;BME280;46564;53.096;8.246;2022-10-31T02:20:15;101861.53;;;10.43;99.34
60715;BME280;46564;53.096;8.246;2022-10-31T02:36:04;101876.75;;;10.07;99.37
60715;BME280;46564;53.096;8.246;2022-10-31T02:41:20;101876.75;;;10.07;99.37
60715;BME280;46564;53.096;8.246;2022-10-31T02:46:34;101868.34;;;9.91;99.21
60715;BME280;46564;53.096;8.246;2022-10-31T02:51:40;101869.84;;;9.85;99.43
60715;BME280;46564;53.096;8.246;2022-10-31T02:56:44;101878.19;;;9.75;99.22
60715;BME280;46564;53.096;8.246;2022-10-31T03:02:07;101879.94;;;9.76;99.42
60715;BME280;46564;53.096;8.246;2022-10-31T03:07:23;101877.16;;;9.71;99.45
60715;BME280;46564;53.096;8.246;2022-10-31T03:12:38;101876.28;;;9.70;99.49
60715;BME280;46564;53.096;8.246;2022-10-31T03:18:09;101895.06;;;9.60;99.40
60715;BME280;46564;53.096;8.246;2022-10-31T03:23:18;101893.78;;;9.49;99.50
60715;BME280;46564;53.096;8.246;2022-10-31T03:28:34;101902.31;;;9.45;99.51
60715;BME280;46564;53.096;8.246;2022-10-31T03:33:39;101906.44;;;9.40;99.50
60715;BME280;46564;53.096;8.246;2022-10-31T03:38:45;101899.47;;;9.38;99.36
60715;BME280;46564;53.096;8.246;2022-10-31T03:43:55;101909.25;;;9.44;99.40
60715;BME280;46564;53.096;8.246;2022-10-31T03:48:59;101912.31;;;9.55;99.53
60715;BME280;46564;53.096;8.246;2022-10-31T03:54:07;101904.66;;;9.60;99.52
60715;BME280;46564;53.096;8.246;2022-10-31T03:59:24;101905.53;;;9.60;99.57
60715;BME280;46564;53.096;8.246;2022-10-31T04:04:28;101905.53;;;9.60;99.49
60715;BME280;46564;53.096;8.246;2022-10-31T04:09:35;101903.94;;;9.64;99.75
60715;BME280;46564;53.096;8.246;2022-10-31T04:14:38;101896.84;;;9.61;99.70
60715;BME280;46564;53.096;8.246;2022-10-31T04:19:41;101908.84;;;9.56;99.78
60715;BME280;46564;53.096;8.246;2022-10-31T04:24:43;101904.53;;;9.57;99.72
60715;BME280;46564;53.096;8.246;2022-10-31T04:29:48;101920.16;;;9.55;99.56
60715;BME280;46564;53.096;8.246;2022-10-31T04:34:51;101935.84;;;9.55;99.73
60715;BME280;46564;53.096;8.246;2022-10-31T04:39:53;101926.97;;;9.51;99.71
60715;BME280;46564;53.096;8.246;2022-10-31T04:45:17;101920.03;;;9.52;100.00
60715;BME280;46564;53.096;8.246;2022-10-31T04:50:24;101925.44;;;9.57;99.95
60715;BME280;46564;53.096;8.246;2022-10-31T04:55:26;101921.22;;;9.60;99.90
60715;BME280;46564;53.096;8.246;2022-10-31T05:01:06;101911.91;;;9.67;99.99
60715;BME280;46564;53.096;8.246;2022-10-31T05:06:08;101912.06;;;9.71;99.91
60715;BME280;46564;53.096;8.246;2022-10-31T05:11:13;101913.06;;;9.75;99.96
60715;BME280;46564;53.096;8.246;2022-10-31T05:16:17;101923.59;;;9.77;99.87
60715;BME280;46564;53.096;8.246;2022-10-31T05:21:31;101907.91;;;9.77;100.00
60715;BME280;46564;53.096;8.246;2022-10-31T05:26:35;101907.03;;;9.76;100.00
60715;BME280;46564;53.096;8.246;2022-10-31T05:31:38;101911.09;;;9.69;99.97
60715;BME280;46564;53.096;8.246;2022-10-31T05:36:41;101909.34;;;9.68;100.00
60715;BME280;46564;53.096;8.246;2022-10-31T05:41:46;101905.75;;;9.66;100.00
60715;BME280;46564;53.096;8.246;2022-10-31T05:46:56;101921.22;;;9.60;100.00
60715;BME280;46564;53.096;8.246;2022-10-31T05:51:58;101930.31;;;9.47;100.00
60715;BME280;46564;53.096;8.246;2022-10-31T05:57:08;101933.56;;;9.42;100.00
60715;BME280;46564;53.096;8.246;2022-10-31T06:02:10;101931.72;;;9.39;100.00
60715;BME280;46564;53.096;8.246;2022-10-31T06:07:35;101932.22;;;9.30;100.00
60715;BME280;46564;53.096;8.246;2022-10-31T06:12:37;101939.56;;;9.39;100.00
60715;BME280;46564;53.096;8.246;2022-10-31T06:18:05;101946.84;;;9.25;100.00
60715;BME280;46564;53.096;8.246;2022-10-31T06:23:10;101953.94;;;9.28;100.00
60715;BME280;46564;53.096;8.246;2022-10-31T06:28:14;101955.75;;;9.30;100.00
60715;BME280;46564;53.096;8.246;2022-10-31T06:33:25;101964.44;;;9.29;100.00
60715;BME280;46564;53.096;8.246;2022-10-31T06:38:30;101956.19;;;9.20;100.00
60715;BME280;46564;53.096;8.246;2022-10-31T06:43:32;101951.09;;;9.23;100.00
60715;BME280;46564;53.096;8.246;2022-10-31T06:48:54;101945.63;;;9.17;100.00
60715;BME280;46564;53.096;8.246;2022-10-31T06:54:09;101952.66;;;9.18;100.00
60715;BME280;46564;53.096;8.246;2022-10-31T06:59:11;101945.63;;;9.17;100.00
60715;BME280;46564;53.096;8.246;2022-10-31T07:04:32;101962.09;;;9.14;100.00
60715;BME280;46564;53.096;8.246;2022-10-31T07:09:34;101964.69;;;9.14;100.00
60715;BME280;46564;53.096;8.246;2022-10-31T07:14:41;101968.31;;;9.18;100.00
60715;BME280;46564;53.096;8.246;2022-10-31T07:19:42;101978.91;;;9.21;100.00
60715;BME280;46564;53.096;8.246;2022-10-31T07:24:46;101971.38;;;9.29;100.00
60715;BME280;46564;53.096;8.246;2022-10-31T07:30:09;101973.94;;;9.27;100.00
60715;BME280;46564;53.096;8.246;2022-10-31T07:35:21;101968.00;;;9.31;100.00
60715;BME280;46564;53.096;8.246;2022-10-31T07:47:18;101962.00;;;9.55;100.00
60715;BME280;46564;53.096;8.246;2022-10-31T07:53:10;101964.31;;;9.70;100.00
60715;BME280;46564;53.096;8.246;2022-10-31T07:58:29;101967.75;;;9.69;100.00
60715;BME280;46564;53.096;8.246;2022-10-31T08:03:51;101968.53;;;9.66;100.00
60715;BME280;46564;53.096;8.246;2022-10-31T08:09:14;101974.47;;;9.41;100.00
60715;BME280;46564;53.096;8.246;2022-10-31T08:14:55;101974.19;;;9.33;100.00
60715;BME280;46564;53.096;8.246;2022-10-31T08:20:03;101988.09;;;9.32;100.00
60715;BME280;46564;53.096;8.246;2022-10-31T08:25:13;101979.53;;;9.36;100.00
60715;BME280;46564;53.096;8.246;2022-10-31T08:30:17;101990.72;;;9.32;100.00
60715;BME280;46564;53.096;8.246;2022-10-31T08:35:33;101976.72;;;9.32;100.00
60715;BME280;46564;53.096;8.246;2022-10-31T08:40:58;101977.94;;;9.40;100.00
60715;BME280;46564;53.096;8.246;2022-10-31T08:46:07;101972.41;;;9.53;100.00
60715;BME280;46564;53.096;8.246;2022-10-31T08:51:14;101976.94;;;9.59;100.00
60715;BME280;46564;53.096;8.246;2022-10-31T08:56:28;101973.19;;;9.73;100.00
60715;BME280;46564;53.096;8.246;2022-10-31T09:01:29;101968.00;;;9.98;99.83
60715;BME280;46564;53.096;8.246;2022-10-31T09:06:32;101966.38;;;10.24;100.00
60715;BME280;46564;53.096;8.246;2022-10-31T09:11:34;101955.94;;;10.48;99.87
60715;BME280;46564;53.096;8.246;2022-10-31T09:16:44;101956.78;;;10.47;99.76
60715;BME280;46564;53.096;8.246;2022-10-31T09:21:54;101954.00;;;10.42;99.24
60715;BME280;46564;53.096;8.246;2022-10-31T09:26:58;101940.19;;;10.47;99.01
60715;BME280;46564;53.096;8.246;2022-10-31T09:32:01;101952.94;;;10.61;98.88
60715;BME280;46564;53.096;8.246;2022-10-31T09:37:04;101944.91;;;10.57;98.74
60715;BME280;46564;53.096;8.246;2022-10-31T09:47:44;101926.69;;;11.39;98.52
60715;BME280;46564;53.096;8.246;2022-10-31T09:53:25;101928.44;;;11.67;98.53
60715;BME280;46564;53.096;8.246;2022-10-31T09:58:30;101931.84;;;11.64;98.15
60715;BME280;46564;53.096;8.246;2022-10-31T10:03:42;101935.53;;;11.70;97.75
60715;BME280;46564;53.096;8.246;2022-10-31T10:09:06;101938.88;;;11.93;97.50
60715;BME280;46564;53.096;8.246;2022-10-31T10:25:47;101951.88;;;12.18;96.70
60715;BME280;46564;53.096;8.246;2022-10-31T10:31:14;101951.13;;;12.23;96.49
60715;BME280;46564;53.096;8.246;2022-10-31T10:36:22;101944.69;;;12.13;96.17
60715;BME280;46564;53.096;8.246;2022-10-31T10:41:32;101941.81;;;12.03;95.82
60715;BME280;46564;53.096;8.246;2022-10-31T10:46:40;101940.53;;;12.19;95.81
60715;BME280;46564;53.096;8.246;2022-10-31T10:52:16;101936.78;;;12.42;95.93
60715;BME280;46564;53.096;8.246;2022-10-31T10:58:02;101931.03;;;12.88;95.66
60715;BME280;46564;53.096;8.246;2022-10-31T11:03:05;101921.19;;;12.81;95.40
60715;BME280;46564;53.096;8.246;2022-10-31T11:08:08;101916.47;;;13.03;95.15
60715;BME280;46564;53.096;8.246;2022-10-31T11:18:24;101915.44;;;13.33;94.67
60715;BME280;46564;53.096;8.246;2022-10-31T11:23:28;101915.31;;;13.63;94.58
60715;BME280;46564;53.096;8.246;2022-10-31T11:28:32;101898.09;;;13.79;94.02
60715;BME280;46564;53.096;8.246;2022-10-31T11:33:44;101900.31;;;14.02;93.53
60715;BME280;46564;53.096;8.246;2022-10-31T11:38:54;101905.22;;;14.27;92.83
60715;BME280;46564;53.096;8.246;2022-10-31T11:54:46;101878.22;;;14.85;90.61
60715;BME280;46564;53.096;8.246;2022-10-31T11:59:55;101879.41;;;15.06;90.21
60715;BME280;46564;53.096;8.246;2022-10-31T12:05:08;101866.22;;;15.06;89.59
60715;BME280;46564;53.096;8.246;2022-10-31T12:10:13;101862.25;;;15.34;89.41
60715;BME280;46564;53.096;8.246;2022-10-31T12:15:32;101855.91;;;15.21;88.82
60715;BME280;46564;53.096;8.246;2022-10-31T12:42:17;101792.03;;;15.45;88.11
60715;BME280;46564;53.096;8.246;2022-10-31T12:52:55;101791.28;;;15.54;86.93
60715;BME280;46564;53.096;8.246;2022-10-31T12:58:07;101786.75;;;15.45;86.55
60715;BME280;46564;53.096;8.246;2022-10-31T13:03:33;101764.63;;;15.35;85.83
60715;BME280;46564;53.096;8.246;2022-10-31T13:08:47;101747.88;;;15.32;85.58
60715;BME280;46564;53.096;8.246;2022-10-31T13:19:17;101740.06;;;15.41;85.49
60715;BME280;46564;53.096;8.246;2022-10-31T13:24:27;101751.63;;;15.49;85.14
60715;BME280;46564;53.096;8.246;2022-10-31T13:34:56;101725.25;;;15.51;84.51
60715;BME280;46564;53.096;8.246;2022-10-31T13:40:38;101708.56;;;15.55;84.55
60715;BME280;46564;53.096;8.246;2022-10-31T13:45:51;101674.28;;;15.58;84.92
60715;BME280;46564;53.096;8.246;2022-10-31T13:51:06;101658.41;;;15.55;85.03
60715;BME280;46564;53.096;8.246;2022-10-31T14:06:12;101646.81;;;15.37;84.69
60715;BME280;46564;53.096;8.246;2022-10-31T14:11:24;101641.50;;;15.36;84.84
60715;BME280;46564;53.096;8.246;2022-10-31T14:16:37;101641.53;;;15.37;84.81
60715;BME280;46564;53.096;8.246;2022-10-31T14:21:42;101636.22;;;15.34;84.74
60715;BME280;46564;53.096;8.246;2022-10-31T14:26:55;101635.38;;;15.42;84.82
60715;BME280;46564;53.096;8.246;2022-10-31T14:32:21;101608.16;;;15.44;85.17
60715;BME280;46564;53.096;8.246;2022-10-31T14:48:03;101576.97;;;15.03;87.34
60715;BME280;46564;53.096;8.246;2022-10-31T14:53:18;101583.75;;;14.84;87.79
60715;BME280;46564;53.096;8.246;2022-10-31T14:58:33;101606.50;;;14.74;88.25
60715;BME280;46564;53.096;8.246;2022-10-31T15:03:44;101600.25;;;14.67;88.71
60715;BME280;46564;53.096;8.246;2022-10-31T15:09:24;101572.72;;;14.50;89.27
60715;BME280;46564;53.096;8.246;2022-10-31T15:14:28;101563.00;;;14.43;89.53
60715;BME280;46564;53.096;8.246;2022-10-31T15:19:32;101573.34;;;14.30;89.77
60715;BME280;46564;53.096;8.246;2022-10-31T15:24:37;101570.63;;;14.24;89.93
60715;BME280;46564;53.096;8.246;2022-10-31T15:29:53;101569.56;;;14.10;89.93
60715;BME280;46564;53.096;8.246;2022-10-31T15:34:56;101574.50;;;13.91;90.39
60715;BME280;46564;53.096;8.246;2022-10-31T15:40:06;101563.78;;;13.79;90.52
60715;BME280;46564;53.096;8.246;2022-10-31T15:51:07;101562.63;;;13.61;91.10
60715;BME280;46564;53.096;8.246;2022-10-31T15:55:57;101541.53;;;13.58;91.40
60715;BME280;46564;53.096;8.246;2022-10-31T16:01:03;101564.16;;;13.47;91.41
60715;BME280;46564;53.096;8.246;2022-10-31T16:06:05;101543.78;;;13.37;91.28
60715;BME280;46564;53.096;8.246;2022-10-31T16:16:13;101539.06;;;13.19;92.00
60715;BME280;46564;53.096;8.246;2022-10-31T16:21:37;101537.19;;;13.13;92.33
60715;BME280;46564;53.096;8.246;2022-10-31T16:26:39;101524.75;;;13.04;92.43
60715;BME280;46564;53.096;8.246;2022-10-31T16:31:41;101525.44;;;12.93;92.64
60715;BME280;46564;53.096;8.246;2022-10-31T16:36:46;101518.28;;;12.85;92.83
60715;BME280;46564;53.096;8.246;2022-10-31T16:41:54;101522.44;;;12.74;93.02
60715;BME280;46564;53.096;8.246;2022-10-31T16:47:07;101517.91;;;12.67;93.31
60715;BME280;46564;53.096;8.246;2022-10-31T16:52:12;101507.25;;;12.61;93.66
60715;BME280;46564;53.096;8.246;2022-10-31T16:57:20;101516.78;;;12.54;93.87
60715;BME280;46564;53.096;8.246;2022-10-31T17:02:23;101519.19;;;12.43;94.14
60715;BME280;46564;53.096;8.246;2022-10-31T17:07:25;101507.81;;;12.44;94.35
60715;BME280;46564;53.096;8.246;2022-10-31T17:12:26;101497.25;;;12.41;94.48
60715;BME280;46564;53.096;8.246;2022-10-31T17:17:28;101496.34;;;12.39;94.96
60715;BME280;46564;53.096;8.246;2022-10-31T17:22:29;101491.88;;;12.36;94.92
60715;BME280;46564;53.096;8.246;2022-10-31T17:27:31;101474.50;;;12.42;95.33
60715;BME280;46564;53.096;8.246;2022-10-31T17:32:32;101499.91;;;12.43;95.35
60715;BME280;46564;53.096;8.246;2022-10-31T17:37:34;101494.59;;;12.40;95.67
60715;BME280;46564;53.096;8.246;2022-10-31T17:42:36;101471.84;;;12.40;95.69
60715;BME280;46564;53.096;8.246;2022-10-31T17:47:37;101471.91;;;12.43;95.73
60715;BME280;46564;53.096;8.246;2022-10-31T17:52:39;101443.06;;;12.45;96.05
60715;BME280;46564;53.096;8.246;2022-10-31T17:57:43;101442.13;;;12.44;95.96
60715;BME280;46564;53.096;8.246;2022-10-31T18:02:44;101433.41;;;12.45;96.07
60715;BME280;46564;53.096;8.246;2022-10-31T18:07:49;101419.50;;;12.49;96.11
60715;BME280;46564;53.096;8.246;2022-10-31T18:12:51;101405.44;;;12.47;96.33
60715;BME280;46564;53.096;8.246;2022-10-31T18:17:52;101393.22;;;12.49;96.14
60715;BME280;46564;53.096;8.246;2022-10-31T18:22:54;101384.41;;;12.47;96.20
60715;BME280;46564;53.096;8.246;2022-10-31T18:27:55;101385.41;;;12.52;96.36
60715;BME280;46564;53.096;8.246;2022-10-31T18:32:57;101388.16;;;12.59;96.31
60715;BME280;46564;53.096;8.246;2022-10-31T18:37:58;101375.91;;;12.61;96.12
60715;BME280;46564;53.096;8.246;2022-10-31T18:43:03;101363.72;;;12.63;96.37
60715;BME280;46564;53.096;8.246;2022-10-31T18:48:06;101378.56;;;12.62;96.01
60715;BME280;46564;53.096;8.246;2022-10-31T18:53:08;101383.91;;;12.67;95.97
60715;BME280;46564;53.096;8.246;2022-10-31T18:58:09;101369.91;;;12.68;96.26
60715;BME280;46564;53.096;8.246;2022-10-31T19:03:11;101346.25;;;12.66;95.91
60715;BME280;46564;53.096;8.246;2022-10-31T19:08:12;101333.03;;;12.62;95.70
60715;BME280;46564;53.096;8.246;2022-10-31T19:13:14;101326.91;;;12.61;95.73
60715;BME280;46564;53.096;8.246;2022-10-31T19:18:16;101308.56;;;12.64;95.97
60715;BME280;46564;53.096;8.246;2022-10-31T19:23:17;101298.88;;;12.62;95.68
60715;BME280;46564;53.096;8.246;2022-10-31T19:28:18;101294.56;;;12.67;95.77
60715;BME280;46564;53.096;8.246;2022-10-31T19:33:20;101283.22;;;12.69;95.57
60715;BME280;46564;53.096;8.246;2022-10-31T19:38:22;101253.47;;;12.69;95.52
60715;BME280;46564;53.096;8.246;2022-10-31T19:43:23;101243.88;;;12.72;95.40
60715;BME280;46564;53.096;8.246;2022-10-31T19:48:30;101238.56;;;12.69;95.53
60715;BME280;46564;53.096;8.246;2022-10-31T19:53:33;101236.91;;;12.75;95.40
60715;BME280;46564;53.096;8.246;2022-10-31T19:58:34;101231.66;;;12.75;95.43
60715;BME280;46564;53.096;8.246;2022-10-31T20:03:37;101225.53;;;12.77;95.42
60715;BME280;46564;53.096;8.246;2022-10-31T20:08:39;101239.59;;;12.79;95.41
60715;BME280;46564;53.096;8.246;2022-10-31T20:13:40;101225.63;;;12.83;95.39
60715;BME280;46564;53.096;8.246;2022-10-31T20:18:43;101223.00;;;12.83;95.25
60715;BME280;46564;53.096;8.246;2022-10-31T20:23:45;101213.31;;;12.79;95.09
60715;BME280;46564;53.096;8.246;2022-10-31T20:28:48;101200.22;;;12.82;95.47
60715;BME280;46564;53.096;8.246;2022-10-31T20:33:49;101198.44;;;12.81;95.45
60715;BME280;46564;53.096;8.246;2022-10-31T20:38:51;101198.38;;;12.77;95.39
60715;BME280;46564;53.096;8.246;2022-10-31T20:43:53;101187.84;;;12.73;95.43
60715;BME280;46564;53.096;8.246;2022-10-31T20:48:54;101192.13;;;12.68;95.49
60715;BME280;46564;53.096;8.246;2022-10-31T20:53:58;101188.66;;;12.69;95.49
60715;BME280;46564;53.096;8.246;2022-10-31T20:59:00;101173.75;;;12.70;95.57
60715;BME280;46564;53.096;8.246;2022-10-31T21:04:03;101177.31;;;12.73;95.59
60715;BME280;46564;53.096;8.246;2022-10-31T21:09:05;101176.34;;;12.67;95.62
60715;BME280;46564;53.096;8.246;2022-10-31T21:14:07;101181.53;;;12.62;95.68
60715;BME280;46564;53.096;8.246;2022-10-31T21:19:09;101173.63;;;12.61;95.72
60715;BME280;46564;53.096;8.246;2022-10-31T21:24:13;101165.69;;;12.58;95.79
60715;BME280;46564;53.096;8.246;2022-10-31T21:29:16;101157.72;;;12.51;95.96
60715;BME280;46564;53.096;8.246;2022-10-31T21:34:18;101157.66;;;12.47;96.05
60715;BME280;46564;53.096;8.246;2022-10-31T21:39:19;101148.03;;;12.47;96.20
60715;BME280;46564;53.096;8.246;2022-10-31T21:44:21;101151.59;;;12.51;96.17
60715;BME280;46564;53.096;8.246;2022-10-31T21:49:22;101148.06;;;12.50;96.15
60715;BME280;46564;53.096;8.246;2022-10-31T21:54:24;101137.56;;;12.50;96.31
60715;BME280;46564;53.096;8.246;2022-10-31T21:59:28;101141.03;;;12.46;96.24
60715;BME280;46564;53.096;8.246;2022-10-31T22:04:29;101126.09;;;12.44;96.34
60715;BME280;46564;53.096;8.246;2022-10-31T22:09:31;101119.94;;;12.40;96.25
60715;BME280;46564;53.096;8.246;2022-10-31T22:14:32;101120.75;;;12.37;96.39
60715;BME280;46564;53.096;8.246;2022-10-31T22:19:34;101106.63;;;12.29;96.35
60715;BME280;46564;53.096;8.246;2022-10-31T22:24:36;101104.00;;;12.29;96.43
60715;BME280;46564;53.096;8.246;2022-10-31T22:29:37;101109.19;;;12.25;96.49
60715;BME280;46564;53.096;8.246;2022-10-31T22:34:38;101099.53;;;12.22;96.63
60715;BME280;46564;53.096;8.246;2022-10-31T22:39:40;101082.84;;;12.18;96.66
60715;BME280;46564;53.096;8.246;2022-10-31T22:44:41;101074.16;;;12.23;96.80
60715;BME280;46564;53.096;8.246;2022-10-31T22:49:43;101068.00;;;12.20;96.80
60715;BME280;46564;53.096;8.246;2022-10-31T22:54:44;101067.97;;;12.19;96.79
60715;BME280;46564;53.096;8.246;2022-10-31T22:59:46;101058.22;;;12.10;96.91
60715;BME280;46564;53.096;8.246;2022-10-31T23:04:47;101053.88;;;12.12;96.96
60715;BME280;46564;53.096;8.246;2022-10-31T23:09:49;101042.53;;;12.13;97.05
60715;BME280;46564;53.096;8.246;2022-10-31T23:14:50;101035.53;;;12.15;97.03
60715;BME280;46564;53.096;8.246;2022-10-31T23:19:52;101032.91;;;12.15;97.08
60715;BME280;46564;53.096;8.246;2022-10-31T23:24:53;101025.88;;;12.13;97.09
60715;BME280;46564;53.096;8.246;2022-10-31T23:29:56;101015.38;;;12.13;97.02
60715;BME280;46564;53.096;8.246;2022-10-31T23:35:05;101013.66;;;12.15;97.15
60715;BME280;46564;53.096;8.246;2022-10-31T23:40:08;101011.91;;;12.15;97.10
60715;BME280;46564;53.096;8.246;2022-10-31T23:45:09;101008.41;;;12.15;97.04
60715;BME280;46564;53.096;8.246;2022-10-31T23:50:11;100995.22;;;12.09;97.07
60715;BME280;46564;53.096;8.246;2022-10-31T23:55:12;100991.69;;;12.08;97.08
